TAF GCRR
GCRR 080200Z 0803/0903 04015KT 9999 SCT025 TX20/0813Z TN16/0806Z=
METAR GCRR
GCRR 080400Z AUTO 03009KT 7000 NSC 17/15 Q1023=
GCRR 080330Z AUTO 03008KT 6000 NSC 17/14 Q1024=
GCRR 080300Z AUTO 04009KT 7000 NSC 17/15 Q1024=
GCRR 080230Z AUTO 04010KT 7000 NSC 18/15 Q1024=
GCRR 080200Z AUTO 04009KT 7000 NSC 18/15 Q1024=
WC GCRR
WS GCRR
WV GCRR